sensor_id;sensor_type;location;lat;lon;timestamp;temperature;humidity
1329;DHT22;658;48.820;9.354;2024-01-10T00:00:06;22.40;30.00
1329;DHT22;658;48.820;9.354;2024-01-10T00:04:07;22.40;30.00
1329;DHT22;658;48.820;9.354;2024-01-10T00:08:07;22.30;30.00
1329;DHT22;658;48.820;9.354;2024-01-10T00:12:08;22.30;30.10
1329;DHT22;658;48.820;9.354;2024-01-10T00:16:11;22.30;30.10
1329;DHT22;658;48.820;9.354;2024-01-10T00:20:12;22.30;30.10
1329;DHT22;658;48.820;9.354;2024-01-10T00:24:13;22.30;30.10
1329;DHT22;658;48.820;9.354;2024-01-10T00:28:14;22.20;30.10
1329;DHT22;658;48.820;9.354;2024-01-10T00:32:18;22.20;30.10
1329;DHT22;658;48.820;9.354;2024-01-10T00:36:18;22.20;30.10
1329;DHT22;658;48.820;9.354;2024-01-10T00:40:19;22.10;30.00
1329;DHT22;658;48.820;9.354;2024-01-10T00:44:20;22.20;30.20
1329;DHT22;658;48.820;9.354;2024-01-10T00:48:20;22.20;30.10
1329;DHT22;658;48.820;9.354;2024-01-10T00:52:21;22.10;30.00
1329;DHT22;658;48.820;9.354;2024-01-10T00:56:21;22.10;30.10
1329;DHT22;658;48.820;9.354;2024-01-10T01:00:22;22.10;30.10
1329;DHT22;658;48.820;9.354;2024-01-10T01:04:25;22.10;30.10
1329;DHT22;658;48.820;9.354;2024-01-10T01:08:28;22.00;30.00
1329;DHT22;658;48.820;9.354;2024-01-10T01:12:28;22.00;30.00
1329;DHT22;658;48.820;9.354;2024-01-10T01:16:29;22.00;30.00
1329;DHT22;658;48.820;9.354;2024-01-10T01:20:34;22.00;30.10
1329;DHT22;658;48.820;9.354;2024-01-10T01:24:35;22.00;30.00
1329;DHT22;658;48.820;9.354;2024-01-10T01:28:35;22.00;30.00
1329;DHT22;658;48.820;9.354;2024-01-10T01:32:36;22.00;30.00
1329;DHT22;658;48.820;9.354;2024-01-10T01:36:36;22.00;30.10
1329;DHT22;658;48.820;9.354;2024-01-10T01:40:37;22.00;30.10
1329;DHT22;658;48.820;9.354;2024-01-10T01:44:38;22.00;30.10
1329;DHT22;658;48.820;9.354;2024-01-10T01:48:39;22.00;30.10
1329;DHT22;658;48.820;9.354;2024-01-10T01:52:40;22.00;30.10
1329;DHT22;658;48.820;9.354;2024-01-10T01:56:41;22.10;30.30
1329;DHT22;658;48.820;9.354;2024-01-10T02:00:42;22.10;30.30
1329;DHT22;658;48.820;9.354;2024-01-10T02:04:45;22.10;30.20
1329;DHT22;658;48.820;9.354;2024-01-10T02:08:46;22.10;30.30
1329;DHT22;658;48.820;9.354;2024-01-10T02:12:50;22.10;30.30
1329;DHT22;658;48.820;9.354;2024-01-10T02:16:50;22.20;30.30
1329;DHT22;658;48.820;9.354;2024-01-10T02:20:54;22.20;30.30
1329;DHT22;658;48.820;9.354;2024-01-10T02:24:54;22.20;30.30
1329;DHT22;658;48.820;9.354;2024-01-10T02:28:58;22.30;30.40
1329;DHT22;658;48.820;9.354;2024-01-10T02:32:59;22.30;30.40
1329;DHT22;658;48.820;9.354;2024-01-10T02:36:59;22.30;30.30
1329;DHT22;658;48.820;9.354;2024-01-10T02:41:00;22.40;30.30
1329;DHT22;658;48.820;9.354;2024-01-10T02:45:03;22.40;30.40
1329;DHT22;658;48.820;9.354;2024-01-10T02:49:04;22.40;30.40
1329;DHT22;658;48.820;9.354;2024-01-10T02:53:04;22.40;30.30
1329;DHT22;658;48.820;9.354;2024-01-10T02:57:05;22.40;30.40
1329;DHT22;658;48.820;9.354;2024-01-10T03:01:06;22.50;30.30
1329;DHT22;658;48.820;9.354;2024-01-10T03:05:07;22.50;30.30
1329;DHT22;658;48.820;9.354;2024-01-10T03:09:08;22.50;30.30
1329;DHT22;658;48.820;9.354;2024-01-10T03:13:09;22.50;30.20
1329;DHT22;658;48.820;9.354;2024-01-10T03:17:09;22.50;30.30
1329;DHT22;658;48.820;9.354;2024-01-10T03:21:10;22.50;30.20
1329;DHT22;658;48.820;9.354;2024-01-10T03:25:10;22.50;30.20
1329;DHT22;658;48.820;9.354;2024-01-10T03:29:11;22.50;30.20
1329;DHT22;658;48.820;9.354;2024-01-10T03:33:11;22.50;30.20
1329;DHT22;658;48.820;9.354;2024-01-10T03:37:12;22.50;30.20
1329;DHT22;658;48.820;9.354;2024-01-10T03:41:21;22.50;30.10
1329;DHT22;658;48.820;9.354;2024-01-10T03:45:22;22.50;30.10
1329;DHT22;658;48.820;9.354;2024-01-10T03:49:23;22.50;30.10
1329;DHT22;658;48.820;9.354;2024-01-10T03:53:27;22.60;30.10
1329;DHT22;658;48.820;9.354;2024-01-10T03:57:27;22.50;30.10
1329;DHT22;658;48.820;9.354;2024-01-10T04:01:28;22.50;30.10
1329;DHT22;658;48.820;9.354;2024-01-10T04:05:28;22.50;30.10
1329;DHT22;658;48.820;9.354;2024-01-10T04:09:29;22.50;30.00
1329;DHT22;658;48.820;9.354;2024-01-10T04:13:32;22.50;30.10
1329;DHT22;658;48.820;9.354;2024-01-10T04:17:32;22.50;30.00
1329;DHT22;658;48.820;9.354;2024-01-10T04:21:35;22.60;30.70
1329;DHT22;658;48.820;9.354;2024-01-10T04:25:36;22.50;30.00
1329;DHT22;658;48.820;9.354;2024-01-10T04:29:36;22.50;30.00
1329;DHT22;658;48.820;9.354;2024-01-10T04:33:39;22.60;30.00
1329;DHT22;658;48.820;9.354;2024-01-10T04:37:42;22.60;30.00
1329;DHT22;658;48.820;9.354;2024-01-10T04:41:43;22.50;30.00
1329;DHT22;658;48.820;9.354;2024-01-10T04:45:43;22.50;30.00
1329;DHT22;658;48.820;9.354;2024-01-10T04:49:44;22.50;30.00
1329;DHT22;658;48.820;9.354;2024-01-10T04:53:45;22.50;30.00
1329;DHT22;658;48.820;9.354;2024-01-10T04:57:45;22.50;30.00
1329;DHT22;658;48.820;9.354;2024-01-10T05:01:46;22.50;30.00
1329;DHT22;658;48.820;9.354;2024-01-10T05:05:46;22.50;30.00
1329;DHT22;658;48.820;9.354;2024-01-10T05:09:47;22.50;30.00
1329;DHT22;658;48.820;9.354;2024-01-10T05:13:47;22.50;30.00
1329;DHT22;658;48.820;9.354;2024-01-10T05:17:50;22.50;30.00
1329;DHT22;658;48.820;9.354;2024-01-10T05:21:53;22.50;30.00
1329;DHT22;658;48.820;9.354;2024-01-10T05:25:55;22.50;30.00
1329;DHT22;658;48.820;9.354;2024-01-10T05:29:55;22.40;29.90
1329;DHT22;658;48.820;9.354;2024-01-10T05:33:56;22.40;29.90
1329;DHT22;658;48.820;9.354;2024-01-10T05:37:56;22.40;30.40
1329;DHT22;658;48.820;9.354;2024-01-10T05:41:57;22.40;30.00
1329;DHT22;658;48.820;9.354;2024-01-10T05:45:58;22.40;29.90
1329;DHT22;658;48.820;9.354;2024-01-10T05:50:01;22.40;29.90
1329;DHT22;658;48.820;9.354;2024-01-10T05:54:02;22.40;29.90
1329;DHT22;658;48.820;9.354;2024-01-10T05:58:04;22.40;29.90
1329;DHT22;658;48.820;9.354;2024-01-10T06:02:05;22.40;29.90
1329;DHT22;658;48.820;9.354;2024-01-10T06:06:05;22.40;29.90
1329;DHT22;658;48.820;9.354;2024-01-10T06:10:06;22.40;29.90
1329;DHT22;658;48.820;9.354;2024-01-10T06:14:10;22.40;29.90
1329;DHT22;658;48.820;9.354;2024-01-10T06:18:10;22.40;29.90
1329;DHT22;658;48.820;9.354;2024-01-10T06:22:11;22.40;30.40
1329;DHT22;658;48.820;9.354;2024-01-10T06:26:11;22.40;30.20
1329;DHT22;658;48.820;9.354;2024-01-10T06:30:12;22.40;30.70
1329;DHT22;658;48.820;9.354;2024-01-10T06:34:13;22.40;30.40
1329;DHT22;658;48.820;9.354;2024-01-10T06:38:13;22.40;30.50
1329;DHT22;658;48.820;9.354;2024-01-10T06:42:14;22.50;30.70
1329;DHT22;658;48.820;9.354;2024-01-10T06:46:15;22.50;30.60
1329;DHT22;658;48.820;9.354;2024-01-10T06:50:17;22.50;29.70
1329;DHT22;658;48.820;9.354;2024-01-10T06:54:20;22.40;30.00
1329;DHT22;658;48.820;9.354;2024-01-10T06:58:21;22.40;30.40
1329;DHT22;658;48.820;9.354;2024-01-10T07:02:23;22.30;30.00
1329;DHT22;658;48.820;9.354;2024-01-10T07:06:23;22.30;30.00
1329;DHT22;658;48.820;9.354;2024-01-10T07:10:24;22.40;30.20
1329;DHT22;658;48.820;9.354;2024-01-10T07:14:28;22.30;30.20
1329;DHT22;658;48.820;9.354;2024-01-10T07:18:29;22.30;30.20
1329;DHT22;658;48.820;9.354;2024-01-10T07:22:31;22.40;30.60
1329;DHT22;658;48.820;9.354;2024-01-10T07:26:32;22.40;30.50
1329;DHT22;658;48.820;9.354;2024-01-10T07:30:33;22.40;30.40
1329;DHT22;658;48.820;9.354;2024-01-10T07:34:33;22.40;30.50
1329;DHT22;658;48.820;9.354;2024-01-10T07:38:34;22.40;30.50
1329;DHT22;658;48.820;9.354;2024-01-10T07:42:35;22.40;30.50
1329;DHT22;658;48.820;9.354;2024-01-10T07:46:36;22.40;30.50
1329;DHT22;658;48.820;9.354;2024-01-10T07:50:38;22.40;30.60
1329;DHT22;658;48.820;9.354;2024-01-10T07:54:39;22.50;30.70
1329;DHT22;658;48.820;9.354;2024-01-10T07:58:39;22.50;30.60
1329;DHT22;658;48.820;9.354;2024-01-10T08:02:40;22.50;30.50
1329;DHT22;658;48.820;9.354;2024-01-10T08:06:41;22.50;30.50
1329;DHT22;658;48.820;9.354;2024-01-10T08:10:42;22.50;30.50
1329;DHT22;658;48.820;9.354;2024-01-10T08:14:43;22.50;30.40
1329;DHT22;658;48.820;9.354;2024-01-10T08:18:46;22.50;30.30
1329;DHT22;658;48.820;9.354;2024-01-10T08:22:47;22.50;30.20
1329;DHT22;658;48.820;9.354;2024-01-10T08:26:49;22.50;30.10
1329;DHT22;658;48.820;9.354;2024-01-10T08:30:52;22.50;30.10
1329;DHT22;658;48.820;9.354;2024-01-10T08:34:53;22.60;30.30
1329;DHT22;658;48.820;9.354;2024-01-10T08:38:54;22.60;30.30
1329;DHT22;658;48.820;9.354;2024-01-10T08:42:56;22.60;30.40
1329;DHT22;658;48.820;9.354;2024-01-10T08:46:57;22.70;30.40
1329;DHT22;658;48.820;9.354;2024-01-10T08:51:00;22.70;30.30
1329;DHT22;658;48.820;9.354;2024-01-10T08:55:00;22.80;30.30
1329;DHT22;658;48.820;9.354;2024-01-10T08:59:01;22.90;30.30
1329;DHT22;658;48.820;9.354;2024-01-10T09:03:02;22.90;30.20
1329;DHT22;658;48.820;9.354;2024-01-10T09:07:03;22.90;30.00
1329;DHT22;658;48.820;9.354;2024-01-10T09:11:03;23.00;30.10
1329;DHT22;658;48.820;9.354;2024-01-10T09:15:04;23.00;30.00
1329;DHT22;658;48.820;9.354;2024-01-10T09:19:05;23.10;30.10
1329;DHT22;658;48.820;9.354;2024-01-10T09:23:06;23.20;30.00
1329;DHT22;658;48.820;9.354;2024-01-10T09:27:06;23.10;30.00
1329;DHT22;658;48.820;9.354;2024-01-10T09:31:08;23.30;30.00
1329;DHT22;658;48.820;9.354;2024-01-10T09:35:09;23.30;30.00
1329;DHT22;658;48.820;9.354;2024-01-10T09:39:09;23.30;30.00
1329;DHT22;658;48.820;9.354;2024-01-10T09:43:13;23.40;30.00
1329;DHT22;658;48.820;9.354;2024-01-10T09:47:15;23.40;30.00
1329;DHT22;658;48.820;9.354;2024-01-10T09:51:16;23.50;30.00
1329;DHT22;658;48.820;9.354;2024-01-10T09:55:18;23.50;30.00
1329;DHT22;658;48.820;9.354;2024-01-10T09:59:21;23.50;29.90
1329;DHT22;658;48.820;9.354;2024-01-10T10:03:21;23.60;29.90
1329;DHT22;658;48.820;9.354;2024-01-10T10:07:22;23.60;30.00
1329;DHT22;658;48.820;9.354;2024-01-10T10:11:23;23.60;29.80
1329;DHT22;658;48.820;9.354;2024-01-10T10:15:24;23.70;29.90
1329;DHT22;658;48.820;9.354;2024-01-10T10:19:28;23.70;29.90
1329;DHT22;658;48.820;9.354;2024-01-10T10:23:28;23.80;30.00
1329;DHT22;658;48.820;9.354;2024-01-10T10:27:29;23.80;30.00
1329;DHT22;658;48.820;9.354;2024-01-10T10:31:30;23.80;29.90
1329;DHT22;658;48.820;9.354;2024-01-10T10:35:33;23.80;29.80
1329;DHT22;658;48.820;9.354;2024-01-10T10:39:34;23.70;29.80
1329;DHT22;658;48.820;9.354;2024-01-10T10:43:35;23.70;29.90
1329;DHT22;658;48.820;9.354;2024-01-10T10:47:37;23.70;30.00
1329;DHT22;658;48.820;9.354;2024-01-10T10:51:41;23.70;30.10
1329;DHT22;658;48.820;9.354;2024-01-10T10:55:42;23.80;30.80
1329;DHT22;658;48.820;9.354;2024-01-10T10:59:43;23.80;30.70
1329;DHT22;658;48.820;9.354;2024-01-10T11:03:46;23.70;30.50
1329;DHT22;658;48.820;9.354;2024-01-10T11:07:48;23.70;30.30
1329;DHT22;658;48.820;9.354;2024-01-10T11:16:30;23.80;30.20
1329;DHT22;658;48.820;9.354;2024-01-10T11:25:15;23.70;30.10
1329;DHT22;658;48.820;9.354;2024-01-10T11:29:16;23.80;30.10
1329;DHT22;658;48.820;9.354;2024-01-10T11:33:41;23.80;30.00
1329;DHT22;658;48.820;9.354;2024-01-10T11:37:45;23.70;30.10
1329;DHT22;658;48.820;9.354;2024-01-10T11:41:47;23.80;30.00
1329;DHT22;658;48.820;9.354;2024-01-10T11:45:51;23.80;29.80
1329;DHT22;658;48.820;9.354;2024-01-10T11:49:58;23.70;29.70
1329;DHT22;658;48.820;9.354;2024-01-10T11:53:59;23.70;29.60
1329;DHT22;658;48.820;9.354;2024-01-10T11:58:10;23.70;29.60
1329;DHT22;658;48.820;9.354;2024-01-10T12:02:11;23.70;29.60
1329;DHT22;658;48.820;9.354;2024-01-10T12:06:14;23.70;29.60
1329;DHT22;658;48.820;9.354;2024-01-10T12:10:16;23.80;29.60
1329;DHT22;658;48.820;9.354;2024-01-10T12:14:17;23.80;29.60
1329;DHT22;658;48.820;9.354;2024-01-10T12:18:18;23.80;29.50
1329;DHT22;658;48.820;9.354;2024-01-10T12:22:22;23.80;29.40
1329;DHT22;658;48.820;9.354;2024-01-10T12:26:22;23.80;29.30
1329;DHT22;658;48.820;9.354;2024-01-10T12:30:23;23.90;29.20
1329;DHT22;658;48.820;9.354;2024-01-10T12:34:24;23.90;29.10
1329;DHT22;658;48.820;9.354;2024-01-10T12:38:24;23.90;29.00
1329;DHT22;658;48.820;9.354;2024-01-10T12:42:26;24.00;29.00
1329;DHT22;658;48.820;9.354;2024-01-10T12:46:27;24.00;28.80
1329;DHT22;658;48.820;9.354;2024-01-10T12:50:30;24.10;28.80
1329;DHT22;658;48.820;9.354;2024-01-10T12:54:33;24.10;28.60
1329;DHT22;658;48.820;9.354;2024-01-10T12:58:35;24.20;28.50
1329;DHT22;658;48.820;9.354;2024-01-10T13:02:38;24.20;28.30
1329;DHT22;658;48.820;9.354;2024-01-10T13:06:40;24.30;28.50
1329;DHT22;658;48.820;9.354;2024-01-10T13:10:41;24.20;28.20
1329;DHT22;658;48.820;9.354;2024-01-10T13:14:42;24.30;28.20
1329;DHT22;658;48.820;9.354;2024-01-10T13:18:45;24.30;28.20
1329;DHT22;658;48.820;9.354;2024-01-10T13:22:47;24.30;28.20
1329;DHT22;658;48.820;9.354;2024-01-10T13:26:48;24.40;28.20
1329;DHT22;658;48.820;9.354;2024-01-10T13:30:48;24.40;28.10
1329;DHT22;658;48.820;9.354;2024-01-10T13:34:51;24.40;28.00
1329;DHT22;658;48.820;9.354;2024-01-10T13:38:54;24.40;27.70
1329;DHT22;658;48.820;9.354;2024-01-10T13:42:57;24.40;27.70
1329;DHT22;658;48.820;9.354;2024-01-10T13:46:57;24.30;27.60
1329;DHT22;658;48.820;9.354;2024-01-10T13:50:58;24.30;27.60
1329;DHT22;658;48.820;9.354;2024-01-10T13:54:59;24.30;27.60
1329;DHT22;658;48.820;9.354;2024-01-10T13:59:00;24.30;27.50
1329;DHT22;658;48.820;9.354;2024-01-10T14:03:01;24.30;27.40
1329;DHT22;658;48.820;9.354;2024-01-10T14:07:02;24.20;27.50
1329;DHT22;658;48.820;9.354;2024-01-10T14:11:04;24.20;27.70
1329;DHT22;658;48.820;9.354;2024-01-10T14:15:05;24.20;27.70
1329;DHT22;658;48.820;9.354;2024-01-10T14:19:08;24.30;27.60
1329;DHT22;658;48.820;9.354;2024-01-10T14:23:08;24.20;27.70
1329;DHT22;658;48.820;9.354;2024-01-10T14:27:09;24.30;27.80
1329;DHT22;658;48.820;9.354;2024-01-10T14:31:10;24.20;27.80
1329;DHT22;658;48.820;9.354;2024-01-10T14:35:14;24.10;27.80
1329;DHT22;658;48.820;9.354;2024-01-10T14:39:14;24.10;27.70
1329;DHT22;658;48.820;9.354;2024-01-10T14:43:15;24.10;27.90
1329;DHT22;658;48.820;9.354;2024-01-10T14:47:16;24.00;27.70
1329;DHT22;658;48.820;9.354;2024-01-10T14:51:17;24.00;27.80
1329;DHT22;658;48.820;9.354;2024-01-10T14:55:18;23.90;27.90
1329;DHT22;658;48.820;9.354;2024-01-10T14:59:19;24.00;28.30
1329;DHT22;658;48.820;9.354;2024-01-10T15:03:20;24.00;28.20
1329;DHT22;658;48.820;9.354;2024-01-10T15:07:21;24.00;28.20
1329;DHT22;658;48.820;9.354;2024-01-10T15:11:22;23.90;28.10
1329;DHT22;658;48.820;9.354;2024-01-10T15:15:22;23.80;27.50
1329;DHT22;658;48.820;9.354;2024-01-10T15:19:23;23.70;28.80
1329;DHT22;658;48.820;9.354;2024-01-10T15:23:23;23.60;29.40
1329;DHT22;658;48.820;9.354;2024-01-10T15:27:25;23.50;30.00
1329;DHT22;658;48.820;9.354;2024-01-10T15:31:28;23.50;29.50
1329;DHT22;658;48.820;9.354;2024-01-10T15:35:29;23.50;29.60
1329;DHT22;658;48.820;9.354;2024-01-10T15:39:29;23.50;29.40
1329;DHT22;658;48.820;9.354;2024-01-10T15:43:30;23.50;29.30
1329;DHT22;658;48.820;9.354;2024-01-10T15:47:31;23.40;29.00
1329;DHT22;658;48.820;9.354;2024-01-10T15:51:34;23.40;29.40
1329;DHT22;658;48.820;9.354;2024-01-10T15:55:35;23.30;29.60
1329;DHT22;658;48.820;9.354;2024-01-10T15:59:37;23.30;29.90
1329;DHT22;658;48.820;9.354;2024-01-10T16:03:37;23.20;29.70
1329;DHT22;658;48.820;9.354;2024-01-10T16:07:40;23.20;29.50
1329;DHT22;658;48.820;9.354;2024-01-10T16:11:41;23.20;29.50
1329;DHT22;658;48.820;9.354;2024-01-10T16:15:44;23.10;29.30
1329;DHT22;658;48.820;9.354;2024-01-10T16:19:45;23.10;29.30
1329;DHT22;658;48.820;9.354;2024-01-10T16:23:45;23.00;29.20
1329;DHT22;658;48.820;9.354;2024-01-10T16:27:46;23.00;29.70
1329;DHT22;658;48.820;9.354;2024-01-10T16:31:47;23.00;29.40
1329;DHT22;658;48.820;9.354;2024-01-10T16:35:48;22.90;29.30
1329;DHT22;658;48.820;9.354;2024-01-10T16:39:49;22.90;29.20
1329;DHT22;658;48.820;9.354;2024-01-10T16:43:49;22.90;29.20
1329;DHT22;658;48.820;9.354;2024-01-10T16:47:50;22.80;29.20
1329;DHT22;658;48.820;9.354;2024-01-10T16:51:51;22.70;29.20
1329;DHT22;658;48.820;9.354;2024-01-10T16:55:52;22.70;29.20
1329;DHT22;658;48.820;9.354;2024-01-10T16:59:52;22.70;29.20
1329;DHT22;658;48.820;9.354;2024-01-10T17:03:53;22.70;29.20
1329;DHT22;658;48.820;9.354;2024-01-10T17:07:55;22.60;29.20
1329;DHT22;658;48.820;9.354;2024-01-10T17:11:56;22.60;29.20
1329;DHT22;658;48.820;9.354;2024-01-10T17:15:57;22.60;29.20
1329;DHT22;658;48.820;9.354;2024-01-10T17:19:57;22.60;29.20
1329;DHT22;658;48.820;9.354;2024-01-10T17:23:59;22.50;29.20
1329;DHT22;658;48.820;9.354;2024-01-10T17:27:59;22.50;29.20
1329;DHT22;658;48.820;9.354;2024-01-10T17:32:00;22.50;29.20
1329;DHT22;658;48.820;9.354;2024-01-10T17:36:00;22.50;29.30
1329;DHT22;658;48.820;9.354;2024-01-10T17:40:01;22.40;29.20
1329;DHT22;658;48.820;9.354;2024-01-10T17:44:04;22.40;29.30
1329;DHT22;658;48.820;9.354;2024-01-10T17:48:05;22.40;29.30
1329;DHT22;658;48.820;9.354;2024-01-10T17:52:05;22.40;29.30
1329;DHT22;658;48.820;9.354;2024-01-10T17:56:07;22.30;29.30
1329;DHT22;658;48.820;9.354;2024-01-10T18:00:08;22.30;29.30
1329;DHT22;658;48.820;9.354;2024-01-10T18:04:13;22.30;29.30
1329;DHT22;658;48.820;9.354;2024-01-10T18:08:14;22.30;29.40
1329;DHT22;658;48.820;9.354;2024-01-10T18:12:14;22.30;29.40
1329;DHT22;658;48.820;9.354;2024-01-10T18:16:15;22.20;29.40
1329;DHT22;658;48.820;9.354;2024-01-10T18:20:16;22.20;29.40
1329;DHT22;658;48.820;9.354;2024-01-10T18:24:17;22.20;29.40
1329;DHT22;658;48.820;9.354;2024-01-10T18:28:17;22.20;29.40
1329;DHT22;658;48.820;9.354;2024-01-10T18:32:18;22.20;29.50
1329;DHT22;658;48.820;9.354;2024-01-10T18:36:23;22.10;29.40
1329;DHT22;658;48.820;9.354;2024-01-10T18:40:23;22.10;29.40
1329;DHT22;658;48.820;9.354;2024-01-10T18:44:24;22.10;29.50
1329;DHT22;658;48.820;9.354;2024-01-10T18:48:26;22.00;29.60
1329;DHT22;658;48.820;9.354;2024-01-10T18:52:27;22.10;29.70
1329;DHT22;658;48.820;9.354;2024-01-10T18:56:27;22.00;29.70
1329;DHT22;658;48.820;9.354;2024-01-10T19:00:28;22.00;29.70
1329;DHT22;658;48.820;9.354;2024-01-10T19:04:29;22.10;29.70
1329;DHT22;658;48.820;9.354;2024-01-10T19:08:30;22.10;29.80
1329;DHT22;658;48.820;9.354;2024-01-10T19:12:31;22.10;29.80
1329;DHT22;658;48.820;9.354;2024-01-10T19:16:31;22.10;29.90
1329;DHT22;658;48.820;9.354;2024-01-10T19:20:34;22.20;29.90
1329;DHT22;658;48.820;9.354;2024-01-10T19:24:36;22.20;29.90
1329;DHT22;658;48.820;9.354;2024-01-10T19:28:36;22.20;29.90
1329;DHT22;658;48.820;9.354;2024-01-10T19:32:37;22.20;29.90
1329;DHT22;658;48.820;9.354;2024-01-10T19:36:37;22.30;30.00
1329;DHT22;658;48.820;9.354;2024-01-10T19:40:40;22.30;30.00
1329;DHT22;658;48.820;9.354;2024-01-10T19:44:41;22.30;30.00
1329;DHT22;658;48.820;9.354;2024-01-10T19:48:45;22.40;30.30
1329;DHT22;658;48.820;9.354;2024-01-10T19:52:45;22.40;30.20
1329;DHT22;658;48.820;9.354;2024-01-10T19:56:48;22.40;30.50
1329;DHT22;658;48.820;9.354;2024-01-10T20:00:53;22.40;30.80
1329;DHT22;658;48.820;9.354;2024-01-10T20:04:57;22.50;31.10
1329;DHT22;658;48.820;9.354;2024-01-10T20:08:57;22.50;31.20
1329;DHT22;658;48.820;9.354;2024-01-10T20:12:58;22.50;31.60
1329;DHT22;658;48.820;9.354;2024-01-10T20:16:59;22.60;31.90
1329;DHT22;658;48.820;9.354;2024-01-10T20:21:02;22.60;31.90
1329;DHT22;658;48.820;9.354;2024-01-10T20:25:03;22.60;32.00
1329;DHT22;658;48.820;9.354;2024-01-10T20:29:04;22.60;32.00
1329;DHT22;658;48.820;9.354;2024-01-10T20:33:05;22.60;32.00
1329;DHT22;658;48.820;9.354;2024-01-10T20:37:05;22.60;32.00
1329;DHT22;658;48.820;9.354;2024-01-10T20:41:06;22.60;32.00
1329;DHT22;658;48.820;9.354;2024-01-10T20:45:07;22.60;31.90
1329;DHT22;658;48.820;9.354;2024-01-10T20:49:10;22.60;31.90
1329;DHT22;658;48.820;9.354;2024-01-10T20:53:29;22.70;31.90
1329;DHT22;658;48.820;9.354;2024-01-10T20:57:30;22.70;31.80
1329;DHT22;658;48.820;9.354;2024-01-10T21:01:32;22.70;31.70
1329;DHT22;658;48.820;9.354;2024-01-10T21:05:33;22.70;31.80
1329;DHT22;658;48.820;9.354;2024-01-10T21:09:34;22.70;31.70
1329;DHT22;658;48.820;9.354;2024-01-10T21:13:35;22.70;31.60
1329;DHT22;658;48.820;9.354;2024-01-10T21:17:36;22.80;31.70
1329;DHT22;658;48.820;9.354;2024-01-10T21:21:37;22.80;31.60
1329;DHT22;658;48.820;9.354;2024-01-10T21:25:39;22.80;31.60
1329;DHT22;658;48.820;9.354;2024-01-10T21:29:41;22.80;31.50
1329;DHT22;658;48.820;9.354;2024-01-10T21:33:42;22.80;31.50
1329;DHT22;658;48.820;9.354;2024-01-10T21:37:43;22.80;31.40
1329;DHT22;658;48.820;9.354;2024-01-10T21:41:43;22.90;31.50
1329;DHT22;658;48.820;9.354;2024-01-10T21:45:46;22.80;31.30
1329;DHT22;658;48.820;9.354;2024-01-10T21:49:47;22.90;31.40
1329;DHT22;658;48.820;9.354;2024-01-10T21:53:48;22.80;31.30
1329;DHT22;658;48.820;9.354;2024-01-10T21:57:50;22.90;31.40
1329;DHT22;658;48.820;9.354;2024-01-10T22:01:50;22.90;31.30
1329;DHT22;658;48.820;9.354;2024-01-10T22:05:51;22.90;31.40
1329;DHT22;658;48.820;9.354;2024-01-10T22:09:53;22.90;31.40
1329;DHT22;658;48.820;9.354;2024-01-10T22:13:56;22.90;31.40
1329;DHT22;658;48.820;9.354;2024-01-10T22:17:58;22.90;31.40
1329;DHT22;658;48.820;9.354;2024-01-10T22:22:02;22.90;31.60
1329;DHT22;658;48.820;9.354;2024-01-10T22:26:03;22.90;31.50
1329;DHT22;658;48.820;9.354;2024-01-10T22:30:05;22.90;31.60
1329;DHT22;658;48.820;9.354;2024-01-10T22:34:06;22.90;31.50
1329;DHT22;658;48.820;9.354;2024-01-10T22:38:06;22.90;31.40
1329;DHT22;658;48.820;9.354;2024-01-10T22:42:07;22.90;31.30
1329;DHT22;658;48.820;9.354;2024-01-10T22:46:08;22.90;31.30
1329;DHT22;658;48.820;9.354;2024-01-10T22:50:08;22.90;31.20
1329;DHT22;658;48.820;9.354;2024-01-10T22:54:14;22.90;31.20
1329;DHT22;658;48.820;9.354;2024-01-10T22:58:15;22.80;31.00
1329;DHT22;658;48.820;9.354;2024-01-10T23:02:15;22.80;31.00
1329;DHT22;658;48.820;9.354;2024-01-10T23:06:18;22.80;31.00
1329;DHT22;658;48.820;9.354;2024-01-10T23:10:19;22.80;30.90
1329;DHT22;658;48.820;9.354;2024-01-10T23:14:22;22.80;30.90
1329;DHT22;658;48.820;9.354;2024-01-10T23:18:22;22.80;30.80
1329;DHT22;658;48.820;9.354;2024-01-10T23:22:23;22.80;30.80
1329;DHT22;658;48.820;9.354;2024-01-10T23:26:23;22.80;30.80
1329;DHT22;658;48.820;9.354;2024-01-10T23:30:24;22.80;30.70
1329;DHT22;658;48.820;9.354;2024-01-10T23:34:24;22.80;30.70
1329;DHT22;658;48.820;9.354;2024-01-10T23:38:25;22.70;30.60
1329;DHT22;658;48.820;9.354;2024-01-10T23:42:26;22.70;30.50
1329;DHT22;658;48.820;9.354;2024-01-10T23:46:28;22.70;30.50
1329;DHT22;658;48.820;9.354;2024-01-10T23:50:29;22.70;30.50
1329;DHT22;658;48.820;9.354;2024-01-10T23:54:29;22.70;30.50
1329;DHT22;658;48.820;9.354;2024-01-10T23:58:30;22.70;30.50
